createdAt,value
2023-04-16T00:01:28.391Z,100909.09
2023-04-16T00:03:55.785Z,100936.28
2023-04-16T00:06:23.196Z,100910.72
2023-04-16T00:08:50.417Z,100909.56
2023-04-16T00:11:17.302Z,100930.69
2023-04-16T00:13:43.782Z,100928.47
2023-04-16T00:16:10.299Z,100934.91
2023-04-16T00:18:36.720Z,100937.25
2023-04-16T00:21:03.306Z,100940.69
2023-04-16T00:23:29.778Z,100945.16
2023-04-16T00:25:59.991Z,100941.88
2023-04-16T00:28:27.669Z,100954.31
2023-04-16T00:30:54.642Z,100956.81
2023-04-16T00:33:21.834Z,100945.16
2023-04-16T00:35:48.608Z,100941.56
2023-04-16T00:38:14.971Z,100953.94
2023-04-16T00:40:41.435Z,100949.00
2023-04-16T00:43:07.924Z,100932.81
2023-04-16T00:45:34.915Z,100950.81
2023-04-16T00:48:02.008Z,100961.06
2023-04-16T00:50:29.452Z,100931.47
2023-04-16T00:52:56.880Z,100930.13
2023-04-16T00:55:23.561Z,100925.63
2023-04-16T00:57:50.041Z,100926.91
2023-04-16T01:00:16.927Z,100947.69
2023-04-16T01:02:43.614Z,100945.75
2023-04-16T01:05:14.456Z,100957.78
2023-04-16T01:07:41.065Z,100949.69
2023-04-16T01:10:09.218Z,100907.63
2023-04-16T01:12:35.867Z,100917.94
2023-04-16T01:15:03.156Z,100945.22
2023-04-16T01:17:29.699Z,100930.25
2023-04-16T01:20:00.126Z,100944.81
2023-04-16T01:22:28.543Z,100966.28
2023-04-16T01:24:55.615Z,100933.66
2023-04-16T01:27:26.071Z,100937.78
2023-04-16T01:29:52.814Z,100939.88
2023-04-16T01:32:19.278Z,100980.63
2023-04-16T01:34:45.958Z,100922.50
2023-04-16T01:51:15.032Z,100989.09
2023-04-16T01:53:41.597Z,100959.81
2023-04-16T01:56:08.585Z,100961.00
2023-04-16T01:58:37.995Z,100981.84
2023-04-16T02:01:07.863Z,100956.09
2023-04-16T02:03:35.332Z,100947.91
2023-04-16T02:06:02.256Z,100956.25
2023-04-16T02:08:28.765Z,100993.13
2023-04-16T02:10:56.848Z,100966.19
2023-04-16T02:13:25.701Z,100984.59
2023-04-16T02:15:52.980Z,100967.03
2023-04-16T02:18:19.671Z,100981.38
2023-04-16T02:20:50.001Z,100958.25
2023-04-16T02:23:19.930Z,100952.38
2023-04-16T02:25:47.524Z,100959.97
2023-04-16T02:28:18.307Z,100979.53
2023-04-16T02:30:45.263Z,100963.97
2023-04-16T02:33:13.377Z,100965.69
2023-04-16T02:35:40.888Z,100997.88
2023-04-16T02:38:08.504Z,100966.34
2023-04-16T02:40:35.339Z,100995.13
2023-04-16T02:43:02.113Z,101014.41
2023-04-16T02:45:28.757Z,100995.66
2023-04-16T02:47:55.583Z,101016.50
2023-04-16T02:50:22.253Z,101016.19
2023-04-16T02:52:48.942Z,100979.97
2023-04-16T02:55:16.472Z,100976.81
2023-04-16T02:57:43.226Z,101007.56
2023-04-16T03:00:10.346Z,101026.91
2023-04-16T03:02:37.016Z,101001.34
2023-04-16T03:05:03.616Z,101024.41
2023-04-16T03:07:30.246Z,101017.66
2023-04-16T03:09:56.909Z,101017.53
2023-04-16T03:12:23.481Z,101025.56
2023-04-16T03:14:51.699Z,101025.34
2023-04-16T03:17:18.127Z,101018.44
2023-04-16T03:19:44.610Z,101027.63
2023-04-16T03:22:11.131Z,101038.13
2023-04-16T03:24:38.250Z,101029.63
2023-04-16T03:27:04.687Z,101009.84
2023-04-16T03:29:31.109Z,101030.44
2023-04-16T03:31:57.752Z,101024.97
2023-04-16T03:34:24.178Z,101037.31
2023-04-16T03:36:50.646Z,101031.34
2023-04-16T03:39:17.128Z,101034.09
2023-04-16T03:41:43.550Z,101027.88
2023-04-16T03:44:09.990Z,101033.56
2023-04-16T03:46:36.592Z,101029.09
2023-04-16T03:49:03.084Z,101039.56
2023-04-16T03:51:29.616Z,101039.94
2023-04-16T03:53:56.073Z,101021.50
2023-04-16T03:56:22.497Z,101048.06
2023-04-16T03:58:49.010Z,101046.13
2023-04-16T04:01:15.449Z,101042.81
2023-04-16T04:03:42.323Z,101056.66
2023-04-16T04:06:09.495Z,101054.84
2023-04-16T04:08:36.040Z,101057.91
2023-04-16T04:11:02.468Z,101067.00
2023-04-16T04:13:28.932Z,101054.91
2023-04-16T04:15:55.467Z,101055.03
2023-04-16T04:18:22.007Z,101071.09
2023-04-16T04:20:48.564Z,101073.53
2023-04-16T04:23:15.037Z,101076.72
2023-04-16T04:25:41.458Z,101070.06
2023-04-16T04:28:07.932Z,101086.94
2023-04-16T04:30:35.888Z,101076.94
2023-04-16T04:33:02.713Z,101052.16
2023-04-16T04:35:29.176Z,101071.50
2023-04-16T04:37:55.754Z,101083.13
2023-04-16T04:40:22.419Z,101063.44
2023-04-16T04:42:49.084Z,101079.25
2023-04-16T04:45:16.084Z,101081.63
2023-04-16T04:47:42.691Z,101097.88
2023-04-16T04:50:09.691Z,101092.78
2023-04-16T04:52:36.333Z,101093.81
2023-04-16T04:55:02.782Z,101095.78
2023-04-16T04:57:29.257Z,101102.25
2023-04-16T04:59:55.936Z,101105.03
2023-04-16T05:02:22.519Z,101112.22
2023-04-16T05:04:48.967Z,101118.59
2023-04-16T05:07:16.467Z,101115.22
2023-04-16T05:09:42.895Z,101105.38
2023-04-16T05:12:09.314Z,101106.41
2023-04-16T05:14:36.473Z,101113.84
2023-04-16T05:17:03.081Z,101115.44
2023-04-16T05:19:29.721Z,101115.81
2023-04-16T05:21:56.288Z,101120.72
2023-04-16T05:24:23.312Z,101124.69
2023-04-16T05:26:49.811Z,101128.38
2023-04-16T05:29:16.247Z,101135.03
2023-04-16T05:31:42.767Z,101125.38
2023-04-16T05:34:09.300Z,101123.22
2023-04-16T05:36:35.806Z,101127.66
2023-04-16T05:39:02.278Z,101126.09
2023-04-16T05:41:28.923Z,101134.50
2023-04-16T05:43:55.373Z,101148.84
2023-04-16T05:46:21.865Z,101138.59
2023-04-16T05:48:48.383Z,101144.59
2023-04-16T05:51:14.853Z,101146.88
2023-04-16T05:53:41.812Z,101142.16
2023-04-16T05:56:08.451Z,101143.16
2023-04-16T05:58:34.952Z,101136.91
2023-04-16T06:01:04.506Z,101157.63
2023-04-16T06:03:31.214Z,101145.06
2023-04-16T06:05:57.778Z,101156.88
2023-04-16T06:08:24.314Z,101149.47
2023-04-16T06:10:51.271Z,101153.34
2023-04-16T06:13:17.730Z,101157.72
2023-04-16T06:15:44.189Z,101158.56
2023-04-16T06:18:10.712Z,101168.91
2023-04-16T06:20:37.205Z,101168.22
2023-04-16T06:23:03.629Z,101165.75
2023-04-16T06:25:30.134Z,101162.63
2023-04-16T06:27:56.614Z,101172.91
2023-04-16T06:30:23.104Z,101172.50
2023-04-16T06:32:49.847Z,101170.88
2023-04-16T06:36:30.198Z,101188.50
2023-04-16T06:38:58.538Z,101159.28
2023-04-16T06:41:26.794Z,101162.75
2023-04-16T06:43:53.309Z,101192.53
2023-04-16T06:46:32.638Z,101183.47
2023-04-16T06:48:59.121Z,101170.38
2023-04-16T06:51:26.769Z,101177.53
2023-04-16T06:53:53.246Z,101199.03
2023-04-16T06:56:19.739Z,101183.38
2023-04-16T06:58:46.187Z,101190.44
2023-04-16T07:01:12.728Z,101200.78
2023-04-16T07:03:39.566Z,101184.69
2023-04-16T07:06:24.214Z,101203.19
2023-04-16T07:08:50.766Z,101192.53
2023-04-16T07:11:19.031Z,101190.97
2023-04-16T07:13:45.527Z,101202.94
2023-04-16T07:16:12.161Z,101206.47
2023-04-16T07:18:38.781Z,101212.66
2023-04-16T07:21:05.266Z,101209.50
2023-04-16T07:23:31.797Z,101218.81
2023-04-16T07:25:58.220Z,101216.13
2023-04-16T07:28:25.520Z,101216.63
2023-04-16T07:30:52.035Z,101218.56
2023-04-16T07:33:18.612Z,101224.72
2023-04-16T07:35:45.482Z,101219.50
2023-04-16T07:38:11.979Z,101230.84
2023-04-16T07:40:38.522Z,101221.22
2023-04-16T07:43:04.959Z,101223.50
2023-04-16T07:45:31.396Z,101224.47
2023-04-16T07:47:57.890Z,101245.00
2023-04-16T07:50:25.472Z,101228.16
2023-04-16T07:52:51.924Z,101234.38
2023-04-16T07:55:18.409Z,101255.31
2023-04-16T07:57:44.835Z,101241.34
2023-04-16T08:00:11.782Z,101229.44
2023-04-16T08:02:38.608Z,101244.97
2023-04-16T08:05:05.599Z,101247.31
2023-04-16T08:07:33.332Z,101235.25
2023-04-16T08:10:00.986Z,101249.53
2023-04-16T08:12:27.483Z,101248.34
2023-04-16T08:14:53.914Z,101258.13
2023-04-16T08:17:20.376Z,101252.16
2023-04-16T08:19:46.996Z,101258.31
2023-04-16T08:22:13.895Z,101260.78
2023-04-16T13:34:39.474Z,101435.03
2023-04-16T13:37:06.394Z,101431.41
2023-04-16T13:39:33.722Z,101432.16
2023-04-16T13:42:00.340Z,101438.22
2023-04-16T13:44:26.878Z,101434.66
2023-04-16T13:46:53.538Z,101411.69
2023-04-16T13:49:20.295Z,101403.94
2023-04-16T13:51:46.633Z,101438.84
2023-04-16T13:54:13.138Z,101429.19
2023-04-16T13:56:39.851Z,101432.59
2023-04-16T13:59:06.548Z,101435.09
2023-04-16T14:01:33.070Z,101421.28
2023-04-16T14:04:05.983Z,101416.19
2023-04-16T14:06:33.564Z,101430.81
2023-04-16T14:09:00.053Z,101430.44
2023-04-16T14:11:26.700Z,101423.34
2023-04-16T14:13:53.209Z,101415.50
2023-04-16T14:16:19.887Z,101422.38
2023-04-16T14:18:46.401Z,101440.63
2023-04-16T14:21:13.439Z,101435.66
2023-04-16T14:23:39.916Z,101432.91
2023-04-16T14:26:06.409Z,101424.38
2023-04-16T14:28:33.072Z,101415.75
2023-04-16T14:30:59.467Z,101435.06
2023-04-16T14:33:26.058Z,101429.59
2023-04-16T14:35:52.658Z,101443.63
2023-04-16T14:38:19.110Z,101446.53
2023-04-16T14:40:45.681Z,101439.91
2023-04-16T14:43:12.247Z,101435.91
2023-04-16T14:45:39.149Z,101427.34
2023-04-16T14:48:06.307Z,101439.53
2023-04-16T14:50:37.920Z,101442.66
2023-04-16T14:53:07.456Z,101436.47
2023-04-16T14:55:33.920Z,101451.31
2023-04-16T14:58:00.392Z,101453.47
2023-04-16T15:00:27.554Z,101447.94
2023-04-16T15:02:55.053Z,101447.94
2023-04-16T15:05:22.141Z,101450.22
2023-04-16T15:07:48.607Z,101458.09
2023-04-16T15:10:15.132Z,101450.59
2023-04-16T15:12:41.571Z,101459.16
2023-04-16T15:15:09.041Z,101449.22
2023-04-16T15:17:35.719Z,101457.00
2023-04-16T15:20:02.704Z,101448.63
2023-04-16T15:22:29.246Z,101469.59
2023-04-16T15:24:55.998Z,101470.28
2023-04-16T15:27:22.460Z,101467.47
2023-04-16T15:29:49.579Z,101466.38
2023-04-16T15:32:16.213Z,101462.75
2023-04-16T15:34:42.698Z,101454.66
2023-04-16T15:37:09.743Z,101468.53
2023-04-16T15:39:36.364Z,101460.50
2023-04-16T15:42:06.988Z,101479.34
2023-04-16T15:44:34.739Z,101466.50
2023-04-16T15:47:01.374Z,101471.59
2023-04-16T15:49:27.974Z,101476.25
2023-04-16T15:51:55.595Z,101468.22
2023-04-16T15:54:26.337Z,101473.69
2023-04-16T15:56:52.862Z,101465.81
2023-04-16T15:59:19.333Z,101477.41
2023-04-16T16:01:46.076Z,101460.75
2023-04-16T16:04:12.706Z,101502.34
2023-04-16T16:06:39.286Z,101504.50
2023-04-16T16:09:06.253Z,101490.88
2023-04-16T16:11:32.807Z,101497.84
2023-04-16T16:14:01.471Z,101500.78
2023-04-16T16:16:28.662Z,101495.94
2023-04-16T16:19:15.815Z,101518.31
2023-04-16T16:21:42.926Z,101492.19
2023-04-16T16:24:09.657Z,101495.38
2023-04-16T16:26:36.123Z,101514.00
2023-04-16T16:29:02.677Z,101513.72
2023-04-16T16:31:29.226Z,101488.88
2023-04-16T16:33:55.752Z,101511.72
2023-04-16T16:36:22.293Z,101492.94
2023-04-16T16:38:48.819Z,101498.09
2023-04-16T16:41:15.343Z,101485.50
2023-04-16T16:43:41.865Z,101489.91
2023-04-16T16:46:09.978Z,101488.47
2023-04-16T16:48:36.878Z,101513.63
2023-04-16T16:51:03.555Z,101504.66
2023-04-16T16:53:30.329Z,101495.00
2023-04-16T16:55:57.081Z,101530.91
2023-04-16T16:58:27.735Z,101515.78
2023-04-16T17:00:54.344Z,101516.28
2023-04-16T17:03:21.021Z,101522.72
2023-04-16T17:05:47.846Z,101546.19
2023-04-16T17:08:15.045Z,101527.22
2023-04-16T17:10:43.847Z,101520.97
2023-04-16T17:13:10.773Z,101543.09
2023-04-16T17:15:37.690Z,101512.00
2023-04-16T17:18:06.793Z,101510.63
2023-04-16T17:20:34.154Z,101510.72
2023-04-16T17:23:01.189Z,101529.97
2023-04-16T17:25:27.843Z,101537.84
2023-04-16T17:27:54.453Z,101547.41
2023-04-16T17:30:26.017Z,101529.41
2023-04-16T17:32:52.980Z,101558.56
2023-04-16T17:35:19.790Z,101546.66
2023-04-16T17:37:46.280Z,101574.59
2023-04-16T17:40:14.571Z,101564.06
2023-04-16T17:42:41.456Z,101537.28
2023-04-16T17:45:08.144Z,101586.00
2023-04-16T17:47:36.415Z,101536.03
2023-04-16T17:50:05.434Z,101566.81
2023-04-16T17:52:32.188Z,101569.25
2023-04-16T17:55:01.832Z,101589.06
2023-04-16T17:57:28.657Z,101580.97
2023-04-16T17:59:55.457Z,101576.94
2023-04-16T18:02:22.441Z,101577.28
2023-04-16T18:04:51.640Z,101590.97
2023-04-16T18:07:18.387Z,101594.75
2023-04-16T18:09:45.018Z,101575.47
2023-04-16T18:12:14.163Z,101577.28
2023-04-16T18:14:40.801Z,101591.25
2023-04-16T18:17:11.193Z,101564.41
2023-04-16T18:19:39.487Z,101585.22
2023-04-16T18:22:06.068Z,101612.16
2023-04-16T18:24:35.376Z,101586.00
2023-04-16T18:27:05.855Z,101613.16
2023-04-16T18:29:34.092Z,101606.72
2023-04-16T18:32:03.722Z,101616.38
2023-04-16T18:34:31.657Z,101632.19
2023-04-16T18:37:01.256Z,101618.44
2023-04-16T18:39:27.912Z,101593.69
2023-04-16T18:42:29.557Z,101599.78
2023-04-16T18:44:56.501Z,101604.19
2023-04-16T18:47:23.313Z,101618.66
2023-04-16T18:49:49.888Z,101648.22
2023-04-16T18:52:16.654Z,101609.47
2023-04-16T18:54:43.871Z,101650.88
2023-04-16T18:57:12.458Z,101641.84
2023-04-16T18:59:39.010Z,101630.91
2023-04-16T19:02:05.684Z,101626.84
2023-04-16T19:04:32.239Z,101655.59
2023-04-16T19:06:58.904Z,101635.03
2023-04-16T19:09:27.120Z,101650.41
2023-04-16T19:11:58.951Z,101637.44
2023-04-16T19:14:28.416Z,101647.28
2023-04-16T19:16:58.786Z,101645.09
2023-04-16T19:26:58.886Z,101672.75
2023-04-16T19:29:25.764Z,101636.97
2023-04-16T19:31:54.024Z,101636.25
2023-04-16T19:34:23.449Z,101644.59
2023-04-16T19:36:53.216Z,101662.84
2023-04-16T19:39:24.127Z,101656.50
2023-04-16T19:41:54.068Z,101664.78
2023-04-16T19:44:27.960Z,101659.06
2023-04-16T19:46:58.098Z,101651.53
2023-04-16T19:49:40.298Z,101676.09
2023-04-16T19:52:09.616Z,101668.75
2023-04-16T19:54:48.692Z,101636.72
2023-04-16T19:57:33.310Z,101657.16
2023-04-16T20:00:14.890Z,101638.16
2023-04-16T20:02:48.916Z,101666.25
2023-04-16T20:05:32.595Z,101649.44
2023-04-16T20:08:03.336Z,101678.72
2023-04-16T20:10:33.043Z,101675.41
2023-04-16T20:13:01.200Z,101685.69
2023-04-16T20:15:39.704Z,101654.63
2023-04-16T20:18:11.522Z,101656.19
2023-04-16T20:20:41.881Z,101665.34
2023-04-16T20:23:22.423Z,101666.41
2023-04-16T20:25:53.435Z,101701.88
2023-04-16T20:28:21.669Z,101674.16
2023-04-16T20:31:00.978Z,101661.25
2023-04-16T20:33:48.390Z,101663.78
2023-04-16T20:36:33.215Z,101659.81
2023-04-16T20:39:14.018Z,101679.34
2023-04-16T20:41:44.021Z,101666.38
2023-04-16T20:44:20.874Z,101663.94
2023-04-16T20:46:57.177Z,101688.88
2023-04-16T20:49:28.928Z,101667.78
2023-04-16T20:51:58.583Z,101658.97
2023-04-16T20:54:25.946Z,101696.97
2023-04-16T20:57:21.074Z,101680.25
2023-04-16T21:03:57.253Z,101715.00
2023-04-16T21:06:50.579Z,101666.00
2023-04-16T21:09:40.205Z,101702.59
2023-04-16T21:12:38.056Z,101679.50
2023-04-16T21:15:10.566Z,101681.41
2023-04-16T21:17:46.638Z,101688.59
2023-04-16T21:20:14.081Z,101711.69
2023-04-16T21:22:40.794Z,101710.38
2023-04-16T21:25:07.830Z,101713.66
2023-04-16T21:27:34.335Z,101703.19
2023-04-16T21:30:03.326Z,101704.94
2023-04-16T21:32:29.801Z,101692.00
2023-04-16T21:34:56.263Z,101694.94
2023-04-16T21:37:22.729Z,101707.16
2023-04-16T21:39:49.173Z,101699.94
2023-04-16T21:42:15.656Z,101696.22
2023-04-16T21:44:42.195Z,101683.25
2023-04-16T21:47:08.682Z,101674.09
2023-04-16T21:49:35.157Z,101709.84
2023-04-16T21:52:02.525Z,101683.50
2023-04-16T21:54:29.028Z,101709.19
2023-04-16T21:56:55.493Z,101714.09
2023-04-16T21:59:21.935Z,101703.09
2023-04-16T22:01:48.418Z,101706.59
2023-04-16T22:04:14.990Z,101703.78
2023-04-16T22:06:41.510Z,101725.78
2023-04-16T22:09:08.046Z,101674.84
2023-04-16T22:11:34.476Z,101694.59
2023-04-16T22:14:00.992Z,101716.41
2023-04-16T22:16:28.773Z,101724.00
2023-04-16T22:18:56.627Z,101711.19
2023-04-16T22:21:23.245Z,101698.03
2023-04-16T22:23:49.857Z,101701.72
2023-04-16T22:26:16.493Z,101711.78
2023-04-16T22:28:43.013Z,101692.09
2023-04-16T22:31:10.170Z,101717.53
2023-04-16T22:33:36.764Z,101714.34
2023-04-16T22:36:03.478Z,101699.22
2023-04-16T22:38:30.022Z,101716.63
2023-04-16T22:40:56.484Z,101721.19
2023-04-16T22:43:23.051Z,101722.69
2023-04-16T22:45:49.662Z,101723.59
2023-04-16T22:48:16.562Z,101719.13
2023-04-16T22:50:48.357Z,101725.41
2023-04-16T22:53:14.940Z,101725.78
2023-04-16T22:55:41.453Z,101739.78
2023-04-16T22:58:07.901Z,101722.19
2023-04-16T23:00:34.341Z,101724.84
2023-04-16T23:03:01.022Z,101732.38
2023-04-16T23:05:27.552Z,101729.69
2023-04-16T23:07:54.055Z,101717.03
2023-04-16T23:10:20.682Z,101720.44
2023-04-16T23:12:47.198Z,101729.19
2023-04-16T23:15:14.473Z,101718.22
2023-04-16T23:17:43.847Z,101691.44
2023-04-16T23:20:12.180Z,101692.53
2023-04-16T23:22:39.332Z,101733.53
2023-04-16T23:25:07.941Z,101713.41
2023-04-16T23:27:35.316Z,101710.53
2023-04-16T23:30:02.054Z,101720.59
2023-04-16T23:32:28.529Z,101732.88
2023-04-16T23:34:55.200Z,101720.22
2023-04-16T23:37:21.877Z,101742.09
2023-04-16T23:39:48.320Z,101737.28
2023-04-16T23:42:14.810Z,101733.59
2023-04-16T23:44:41.347Z,101719.34
2023-04-16T23:47:07.889Z,101706.34
2023-04-16T23:49:34.358Z,101695.44
2023-04-16T23:52:00.971Z,101733.81
2023-04-16T23:54:27.618Z,101708.81
2023-04-16T23:56:54.129Z,101703.94
2023-04-16T23:59:20.770Z,101723.41
